Wooster, OH (44691)

2:47 PM EDT on August 23, 2014 (GMT -0400)
Max's Place | Change Station
CLOSE
Current Station
Personal Weather Station
Location: Wooster, OH
Elevation: 1135 ft
Nearby Weather Stations

Elev 1135 ft 40.85 °N, 81.96 °W | Updated 0 second ago

Mostly Cloudy
Mostly Cloudy
80.9 °F
Feels Like 84 °F
N
0.0
Wind Variable Wind from NNE
Gusts 4.0 mph

Today
High -- | Low -- °F
--% Chance of Precip.
Yesterday
High -- | Low -- °F
Precip. -- in
6:45 AM 8:14 PM
Waning Crescent, 3% visible
Pressure 30.04 in
Visibility 10.0 miles
Clouds Few 3500 ft
Mostly Cloudy 4600 ft
Heat Index 84 °F
Dew Point 70 °F
Humidity 70%
Rainfall 0.00 in
Snow Depth Not available.
UV 5 out of 12
Pollen 10.30 out of 12
Air Quality Not available.
Flu Activity Not available.
METAR KBJJ 231756Z AUTO 05005KT 10SM FEW035 BKN046 27/19 A3006 RMK AO2 SLP170 T02670189 10283 20194 50003 TSNO

More Conditions Fewer Conditions

Pressure 30.04 in
Visibility 10.0 miles
Clouds Few 3500 ft
Mostly Cloudy 4600 ft
Heat Index 84 °F
Dew Point 70 °F
Humidity 70%
Rainfall 0.00 in
Snow Depth Not available.
UV 5 out of 12
Pollen 10.30 out of 12
Air Quality Not available.
Flu Activity Not available.
METAR KBJJ 231756Z AUTO 05005KT 10SM FEW035 BKN046 27/19 A3006 RMK AO2 SLP170 T02670189 10283 20194 50003 TSNO

More Conditions Fewer Conditions

10-Day Weather Forecast

Almanac

Astronomy

Aug. 23, 2014 Rise Set
Actual Time 6:45 AM EDT 8:14 PM EDT
Civil Twilight 6:17 AM EDT 8:42 PM EDT
Nautical Twilight 5:42 AM EDT 9:17 PM EDT
Astronomical Twilight 5:05 AM EDT 9:53 PM EDT
Moon 5:00 AM EDT 6:58 PM EDT
Length of Visible Light 14h 25m
Length of Day
13h 28m
Tomorrow will be 2m 30s shorter.
Waning Crescent, 3% of the Moon is Illuminated
Today
Waning Crescent
Aug 25
New
Sep 2
First Quarter
Sep 8
Full
Sep 15
Last Quarter

Today's Extremes

State Highs State Lows

Community

WunderPhotos

Upload Photos

1,746,558 photos uploaded!

WunderBlogs® & News

By Dr. Jeff Masters
Director of Meteorology, Weather Underground
By Kari Strenfel
Meteorologist, Weather Underground
By Christopher C. Burt
Weather Historian, Weather Underground
August 23, 2014
August 23, 2014
August 23, 2014

Nearby

Snow Depth

Station Depth Elevation
No new snow has been reported.

Earthquake Activity

City Distance Mag. Time & Date
No recent earthquake activity has been reported nearby.
Minimum magnitude displayed is 2.5.

Coastal Water Temperatures

Place Temperature
No Stations Reporting

Nearby Weather Stations